createdAt,value
2019-02-08T00:02:05.644Z,76.10
2019-02-08T00:04:35.976Z,76.50
2019-02-08T00:07:06.535Z,76.60
2019-02-08T00:09:37.018Z,76.50
2019-02-08T00:12:07.356Z,76.80
2019-02-08T00:14:37.847Z,76.60
2019-02-08T00:17:08.188Z,76.40
2019-02-08T00:19:38.622Z,76.00
2019-02-08T00:22:08.934Z,75.80
2019-02-08T00:24:39.340Z,75.40
2019-02-08T00:27:09.787Z,75.30
2019-02-08T00:29:40.317Z,75.70
2019-02-08T00:32:10.678Z,75.50
2019-02-08T00:34:41.049Z,75.40
2019-02-08T00:37:11.889Z,75.70
2019-02-08T00:39:42.334Z,76.20
2019-02-08T00:42:12.873Z,75.60
2019-02-08T00:44:43.532Z,75.70
2019-02-08T00:47:13.920Z,76.30
2019-02-08T00:49:44.665Z,75.90
2019-02-08T00:52:15.477Z,76.10
2019-02-08T00:54:45.916Z,76.40
2019-02-08T00:57:16.328Z,76.10
2019-02-08T00:59:46.773Z,76.30
2019-02-08T01:02:17.298Z,76.50
2019-02-08T01:04:47.723Z,76.80
2019-02-08T01:07:30.531Z,76.80
2019-02-08T01:10:00.956Z,77.30
2019-02-08T01:12:31.301Z,76.90
2019-02-08T01:15:02.667Z,77.00
2019-02-08T01:17:33.174Z,77.30
2019-02-08T01:20:03.602Z,77.40
2019-02-08T01:22:34.122Z,77.50
2019-02-08T01:25:06.023Z,77.60
2019-02-08T01:27:36.411Z,77.60
2019-02-08T01:30:09.491Z,77.90
2019-02-08T01:32:40.002Z,78.00
2019-02-08T01:35:10.671Z,78.00
2019-02-08T01:37:41.082Z,77.90
2019-02-08T01:40:15.433Z,78.50
2019-02-08T01:42:45.779Z,77.80
2019-02-08T01:45:18.582Z,77.90
2019-02-08T01:47:48.937Z,78.10
2019-02-08T01:50:24.116Z,78.40
2019-02-08T01:52:54.394Z,78.70
2019-02-08T01:55:25.833Z,78.80
2019-02-08T01:57:56.321Z,78.70
2019-02-08T02:00:35.039Z,79.00
2019-02-08T02:03:06.341Z,79.10
2019-02-08T02:05:36.773Z,79.40
2019-02-08T02:08:07.267Z,79.90
2019-02-08T02:10:39.850Z,80.60
2019-02-08T02:13:10.843Z,81.70
2019-02-08T02:15:41.174Z,81.70
2019-02-08T02:18:12.467Z,82.20
2019-02-08T02:20:43.532Z,82.50
2019-02-08T02:23:15.642Z,83.00
2019-02-08T02:25:46.036Z,83.50
2019-02-08T02:28:16.338Z,84.40
2019-02-08T02:30:46.810Z,84.20
2019-02-08T02:33:17.091Z,84.20
2019-02-08T02:35:47.502Z,84.30
2019-02-08T02:38:17.966Z,84.60
2019-02-08T02:40:48.371Z,84.70
2019-02-08T02:43:18.542Z,84.60
2019-02-08T02:45:48.865Z,84.50
2019-02-08T02:48:19.090Z,84.70
2019-02-08T02:50:49.664Z,85.00
2019-02-08T02:53:20.326Z,84.70
2019-02-08T02:55:50.735Z,85.20
2019-02-08T02:58:21.119Z,84.60
2019-02-08T03:00:52.422Z,84.60
2019-02-08T03:03:22.684Z,84.20
2019-02-08T03:05:53.040Z,84.00
2019-02-08T03:08:23.393Z,84.00
2019-02-08T03:10:53.897Z,83.80
2019-02-08T03:13:24.283Z,84.00
2019-02-08T03:15:54.863Z,84.20
2019-02-08T03:18:25.302Z,84.40
2019-02-08T03:20:55.594Z,85.00
2019-02-08T03:23:26.234Z,85.90
2019-02-08T03:25:57.991Z,86.40
2019-02-08T03:28:28.327Z,87.10
2019-02-08T03:30:59.268Z,87.90
2019-02-08T03:33:29.901Z,88.60
2019-02-08T03:36:00.212Z,89.00
2019-02-08T03:38:30.571Z,89.30
2019-02-08T03:41:00.901Z,89.80
2019-02-08T03:43:31.158Z,90.10
2019-02-08T03:46:02.569Z,90.40
2019-02-08T03:48:32.948Z,90.70
2019-02-08T03:51:03.312Z,90.70
2019-02-08T03:53:33.738Z,90.80
2019-02-08T03:56:04.144Z,90.80
2019-02-08T03:58:34.457Z,91.00
2019-02-08T04:01:06.454Z,91.10
2019-02-08T04:03:36.847Z,91.40
2019-02-08T04:06:08.292Z,91.20
2019-02-08T04:08:38.622Z,91.10
2019-02-08T04:11:09.065Z,91.10
2019-02-08T04:13:39.453Z,91.20
2019-02-08T04:16:09.697Z,91.30
2019-02-08T04:18:40.094Z,91.50
2019-02-08T04:21:10.565Z,91.50
2019-02-08T04:23:40.954Z,91.50
2019-02-08T04:26:11.271Z,91.50
2019-02-08T04:28:41.612Z,91.60
2019-02-08T04:31:11.852Z,91.70
2019-02-08T04:33:42.299Z,91.60
2019-02-08T04:36:12.698Z,91.50
2019-02-08T04:38:43.082Z,91.90
2019-02-08T04:41:13.563Z,91.70
2019-02-08T04:43:45.004Z,91.60
2019-02-08T04:46:15.498Z,91.70
2019-02-08T04:48:45.722Z,91.70
2019-02-08T04:51:15.994Z,91.70
2019-02-08T04:53:46.512Z,91.80
2019-02-08T04:56:16.875Z,91.80
2019-02-08T04:58:47.108Z,91.80
2019-02-08T05:01:17.861Z,91.80
2019-02-08T05:03:48.128Z,91.80
2019-02-08T05:06:18.610Z,91.80
2019-02-08T05:08:49.023Z,91.80
2019-02-08T05:11:19.302Z,91.70
2019-02-08T05:13:49.684Z,91.80
2019-02-08T05:16:20.140Z,91.80
2019-02-08T05:18:50.450Z,91.80
2019-02-08T05:21:20.792Z,91.70
2019-02-08T05:23:51.066Z,91.70
2019-02-08T05:26:21.365Z,91.90
2019-02-08T05:28:51.789Z,91.80
2019-02-08T05:31:22.126Z,91.80
2019-02-08T05:33:52.514Z,91.80
2019-02-08T05:36:22.942Z,91.90
2019-02-08T05:38:53.363Z,92.00
2019-02-08T05:41:23.685Z,92.10
2019-02-08T05:43:53.991Z,92.10
2019-02-08T05:46:24.373Z,92.20
2019-02-08T05:48:54.746Z,92.30
2019-02-08T05:51:25.302Z,92.40
2019-02-08T05:53:55.562Z,92.50
2019-02-08T05:56:26.116Z,92.60
2019-02-08T05:58:56.414Z,92.60
2019-02-08T06:01:26.801Z,92.60
2019-02-08T06:03:59.267Z,92.60
2019-02-08T06:06:29.885Z,92.60
2019-02-08T06:09:00.321Z,92.70
2019-02-08T06:11:32.814Z,92.70
2019-02-08T06:14:02.816Z,92.80
2019-02-08T06:16:33.283Z,92.90
2019-02-08T06:19:03.882Z,92.90
2019-02-08T06:21:34.305Z,92.90
2019-02-08T06:24:04.867Z,92.90
2019-02-08T06:26:35.186Z,92.90
2019-02-08T06:29:05.784Z,93.00
2019-02-08T06:31:36.212Z,93.00
2019-02-08T06:34:06.579Z,92.90
2019-02-08T06:36:37.232Z,92.90
2019-02-08T06:39:10.784Z,93.00
2019-02-08T06:41:41.454Z,93.00
2019-02-08T06:44:11.858Z,93.00
2019-02-08T06:46:42.269Z,93.00
2019-02-08T06:49:12.614Z,92.90
2019-02-08T06:51:43.397Z,93.00
2019-02-08T06:54:13.684Z,92.90
2019-02-08T06:57:02.990Z,92.90
2019-02-08T06:59:43.915Z,92.90
2019-02-08T07:02:22.729Z,92.80
2019-02-08T07:05:12.175Z,92.50
2019-02-08T07:07:52.339Z,92.70
2019-02-08T07:10:41.751Z,92.50
2019-02-08T07:13:31.257Z,92.50
2019-02-08T07:16:16.676Z,92.80
2019-02-08T07:18:52.544Z,92.40
2019-02-08T07:21:34.908Z,92.30
2019-02-08T07:24:24.623Z,92.20
2019-02-08T07:27:02.328Z,92.20
2019-02-08T07:29:51.798Z,92.30
2019-02-08T07:32:33.899Z,92.30
2019-02-08T07:35:21.803Z,92.20
2019-02-08T07:38:11.366Z,92.10
2019-02-08T07:40:58.419Z,91.90
2019-02-08T07:43:43.514Z,91.80
2019-02-08T07:46:32.959Z,91.70
2019-02-08T07:49:09.205Z,91.80
2019-02-08T07:51:58.691Z,91.90
2019-02-08T07:54:38.543Z,92.10
2019-02-08T07:57:27.930Z,92.00
2019-02-08T08:00:17.393Z,91.90
2019-02-08T08:03:06.864Z,91.90
2019-02-08T08:05:52.227Z,91.70
2019-02-08T08:08:42.590Z,91.60
2019-02-08T08:11:25.696Z,91.40
2019-02-08T08:14:04.972Z,91.40
2019-02-08T08:16:52.662Z,91.20
2019-02-08T08:19:30.733Z,91.10
2019-02-08T08:22:20.162Z,90.90
2019-02-08T08:25:09.663Z,90.80
2019-02-08T08:27:59.193Z,90.70
2019-02-08T08:30:48.715Z,90.40
2019-02-08T08:33:27.959Z,90.40
2019-02-08T08:36:34.827Z,90.00
2019-02-08T08:39:43.694Z,90.00
2019-02-08T08:42:52.678Z,90.00
2019-02-08T08:45:37.506Z,90.00
2019-02-08T08:48:45.836Z,89.60
2019-02-08T08:51:54.724Z,88.90
2019-02-08T08:54:56.680Z,88.20
2019-02-08T08:57:54.190Z,87.60
2019-02-08T09:00:53.274Z,87.00
2019-02-08T09:03:55.866Z,86.30
2019-02-08T09:07:04.816Z,86.30
2019-02-08T09:10:13.332Z,85.60
2019-02-08T09:12:57.225Z,84.70
2019-02-08T09:16:06.315Z,84.30
2019-02-08T09:19:05.098Z,83.90
2019-02-08T09:21:56.344Z,83.80
2019-02-08T09:25:05.481Z,83.40
2019-02-08T09:28:04.003Z,83.00
2019-02-08T09:30:53.752Z,82.30
2019-02-08T09:33:55.543Z,83.00
2019-02-08T09:37:04.534Z,82.00
2019-02-08T09:39:51.672Z,81.50
2019-02-08T09:43:00.590Z,81.50
2019-02-08T09:45:40.745Z,80.40
2019-02-08T09:48:38.583Z,80.50
2019-02-08T09:51:35.723Z,80.40
2019-02-08T09:54:39.736Z,80.00
2019-02-08T09:57:38.223Z,79.30
2019-02-08T10:00:47.417Z,79.20
2019-02-08T10:03:56.435Z,79.70
2019-02-08T10:06:50.913Z,79.60
2019-02-08T10:10:02.759Z,78.90
2019-02-08T10:13:11.911Z,78.60
2019-02-08T10:16:20.898Z,78.30
2019-02-08T10:19:30.862Z,80.80
2019-02-08T10:22:26.312Z,78.10
2019-02-08T10:25:35.306Z,77.00
2019-02-08T10:28:44.252Z,76.60
2019-02-08T10:31:39.649Z,77.00
2019-02-08T10:34:35.543Z,76.80
2019-02-08T10:37:39.932Z,77.40
2019-02-08T10:40:48.882Z,75.70
2019-02-08T10:43:57.845Z,76.50
2019-02-08T10:47:06.821Z,75.90
2019-02-08T10:50:12.496Z,75.00
2019-02-08T10:53:09.253Z,75.00
2019-02-08T10:56:04.585Z,75.30
2019-02-08T10:59:09.891Z,73.80
2019-02-08T11:02:18.751Z,73.90
2019-02-08T11:05:19.930Z,73.90
2019-02-08T11:08:29.103Z,73.60
2019-02-08T11:11:25.108Z,73.90
2019-02-08T11:14:16.414Z,73.50
2019-02-08T11:17:25.443Z,73.30
2019-02-08T11:19:56.085Z,73.00
2019-02-08T11:22:26.468Z,71.70
2019-02-08T11:24:56.773Z,71.50
2019-02-08T11:27:27.213Z,70.90
2019-02-08T11:29:57.475Z,71.00
2019-02-08T11:32:42.511Z,70.90
2019-02-08T11:34:59.834Z,71.40
2019-02-08T11:37:30.202Z,71.70
2019-02-08T11:40:00.647Z,71.90
2019-02-08T11:42:31.239Z,71.50
2019-02-08T11:45:01.636Z,72.10
2019-02-08T11:47:32.057Z,71.20
2019-02-08T11:50:02.384Z,70.80
2019-02-08T11:52:32.974Z,70.20
2019-02-08T11:55:03.330Z,70.90
2019-02-08T11:57:34.377Z,70.60
2019-02-08T12:00:06.315Z,70.70
2019-02-08T12:02:40.595Z,71.60
2019-02-08T12:05:08.892Z,70.50
2019-02-08T12:07:39.311Z,70.80
2019-02-08T12:10:09.856Z,69.60
2019-02-08T12:12:40.226Z,70.00
2019-02-08T12:15:11.752Z,69.40
2019-02-08T12:17:42.122Z,69.20
2019-02-08T12:20:12.550Z,69.80
2019-02-08T12:22:43.130Z,69.80
2019-02-08T12:25:13.492Z,70.00
2019-02-08T12:27:43.848Z,69.70
2019-02-08T12:30:19.867Z,69.20
2019-02-08T12:32:50.296Z,69.90
2019-02-08T12:35:20.645Z,69.90
2019-02-08T12:37:51.243Z,69.20
2019-02-08T12:40:21.764Z,68.70
2019-02-08T12:42:52.062Z,69.30
2019-02-08T12:45:22.462Z,68.80
2019-02-08T12:47:52.847Z,69.70
2019-02-08T12:50:23.401Z,69.10
2019-02-08T12:52:53.751Z,68.90
2019-02-08T12:55:24.123Z,68.50
2019-02-08T12:57:54.511Z,68.30
2019-02-08T13:00:24.916Z,67.10
2019-02-08T13:02:55.280Z,65.70
2019-02-08T13:05:25.653Z,64.90
2019-02-08T13:07:56.002Z,64.50
2019-02-08T13:10:26.514Z,65.60
2019-02-08T13:12:56.847Z,65.60
2019-02-08T13:15:27.199Z,64.60
2019-02-08T13:17:57.560Z,64.80
2019-02-08T13:20:28.139Z,64.70
2019-02-08T13:22:58.471Z,65.30
2019-02-08T13:25:28.764Z,66.30
2019-02-08T13:27:59.029Z,67.70
2019-02-08T13:30:29.813Z,68.00
2019-02-08T13:33:00.091Z,68.30
2019-02-08T13:35:30.613Z,68.50
2019-02-08T13:38:01.131Z,69.00
2019-02-08T13:40:31.472Z,69.30
2019-02-08T13:43:02.031Z,70.30
2019-02-08T13:45:32.487Z,69.70
2019-02-08T13:48:02.833Z,70.20
2019-02-08T13:50:33.358Z,70.40
2019-02-08T13:53:03.698Z,70.30
2019-02-08T13:55:34.083Z,70.70
2019-02-08T13:58:06.076Z,70.70
2019-02-08T14:00:37.526Z,70.10
2019-02-08T14:03:08.222Z,70.50
2019-02-08T14:05:38.821Z,69.30
2019-02-08T14:08:09.168Z,68.80
2019-02-08T14:10:39.683Z,69.00
2019-02-08T14:13:10.026Z,68.90
2019-02-08T14:15:40.450Z,70.00
2019-02-08T14:18:10.836Z,71.10
2019-02-08T14:20:41.212Z,71.90
2019-02-08T14:23:11.892Z,72.50
2019-02-08T14:25:42.433Z,72.80
2019-02-08T14:28:12.713Z,72.80
2019-02-08T14:30:43.426Z,72.50
2019-02-08T14:33:13.885Z,72.10
2019-02-08T14:35:44.267Z,72.00
2019-02-08T14:38:18.843Z,72.10
2019-02-08T14:40:49.312Z,72.50
2019-02-08T14:43:19.607Z,73.00
2019-02-08T14:45:50.037Z,73.60
2019-02-08T14:48:20.665Z,74.20
2019-02-08T14:50:51.171Z,75.00
2019-02-08T14:53:21.709Z,75.50
2019-02-08T14:55:52.393Z,76.40
2019-02-08T14:58:22.846Z,76.80
2019-02-08T15:00:53.189Z,77.30
2019-02-08T15:03:23.737Z,78.10
2019-02-08T15:05:54.174Z,79.00
2019-02-08T15:08:24.529Z,79.40
2019-02-08T15:10:54.891Z,80.00
2019-02-08T15:13:25.258Z,80.80
2019-02-08T15:15:55.783Z,81.50
2019-02-08T15:18:26.201Z,81.80
2019-02-08T15:20:56.635Z,82.30
2019-02-08T15:23:27.561Z,82.70
2019-02-08T15:25:58.085Z,83.00
2019-02-08T15:28:28.497Z,83.00
2019-02-08T15:30:59.053Z,84.30
2019-02-08T15:33:29.484Z,85.20
2019-02-08T15:36:00.170Z,85.00
2019-02-08T15:38:30.742Z,86.30
2019-02-08T15:41:01.389Z,86.40
2019-02-08T15:43:32.004Z,86.80
2019-02-08T15:46:04.863Z,87.70
2019-02-08T15:48:35.398Z,87.90
2019-02-08T15:51:05.947Z,88.90
2019-02-08T15:53:37.824Z,89.70
2019-02-08T15:56:11.759Z,90.10
2019-02-08T15:58:42.244Z,90.50
2019-02-08T16:01:13.150Z,90.60
2019-02-08T16:03:44.610Z,90.40
2019-02-08T16:06:14.988Z,90.30
2019-02-08T16:08:45.378Z,90.70
2019-02-08T16:11:15.958Z,90.80
2019-02-08T16:13:46.257Z,90.90
2019-02-08T16:16:16.594Z,91.00
2019-02-08T16:18:46.830Z,90.90
2019-02-08T16:21:17.263Z,90.70
2019-02-08T16:23:47.892Z,90.80
2019-02-08T16:26:18.282Z,90.80
2019-02-08T16:28:48.681Z,90.70
2019-02-08T16:31:19.129Z,90.50
2019-02-08T16:33:49.593Z,90.70
2019-02-08T16:36:20.083Z,91.20
2019-02-08T16:38:50.580Z,90.90
2019-02-08T16:41:20.991Z,91.20
2019-02-08T16:43:51.413Z,91.20
2019-02-08T16:46:21.976Z,91.40
2019-02-08T16:48:52.542Z,91.80
2019-02-08T16:51:23.043Z,91.60
2019-02-08T16:53:53.887Z,91.90
2019-02-08T16:56:24.474Z,92.00
2019-02-08T16:58:54.806Z,92.00
2019-02-08T17:01:25.327Z,92.20
2019-02-08T17:03:55.790Z,92.50
2019-02-08T17:06:26.419Z,92.50
2019-02-08T17:08:57.120Z,92.90
2019-02-08T17:11:27.685Z,93.10
2019-02-08T17:13:58.211Z,93.50
2019-02-08T17:16:28.649Z,93.80
2019-02-08T17:18:59.187Z,94.00
2019-02-08T17:21:29.702Z,94.30
2019-02-08T17:24:00.234Z,94.40
2019-02-08T17:26:30.711Z,94.50
2019-02-08T17:29:01.229Z,94.50
2019-02-08T17:31:32.007Z,94.60
2019-02-08T17:34:03.061Z,94.70
2019-02-08T17:36:33.560Z,95.20
2019-02-08T17:39:05.827Z,95.20
2019-02-08T17:41:37.343Z,95.60
2019-02-08T17:44:08.178Z,95.80
2019-02-08T17:46:39.270Z,95.60
2019-02-08T17:49:10.023Z,95.70
2019-02-08T17:51:40.820Z,95.80
2019-02-08T17:54:12.292Z,96.10
2019-02-08T17:56:43.062Z,96.10
2019-02-08T17:59:13.449Z,96.20
2019-02-08T18:01:43.926Z,96.40
2019-02-08T18:04:14.428Z,96.30
2019-02-08T18:06:45.095Z,96.80
2019-02-08T18:09:24.183Z,96.90
2019-02-08T18:11:54.704Z,97.30
2019-02-08T18:14:25.524Z,97.20
2019-02-08T18:16:55.749Z,97.30
2019-02-08T18:19:26.488Z,97.10
2019-02-08T18:21:56.870Z,97.00
2019-02-08T18:24:27.351Z,96.80
2019-02-08T18:26:58.112Z,96.60
2019-02-08T18:29:28.462Z,96.60
2019-02-08T18:31:58.886Z,96.60
2019-02-08T18:34:29.177Z,96.70
2019-02-08T18:36:59.735Z,96.90
2019-02-08T18:39:30.323Z,96.90
2019-02-08T18:42:00.692Z,96.90
2019-02-08T18:44:31.091Z,96.80
2019-02-08T18:47:01.470Z,96.70
2019-02-08T18:49:32.824Z,96.90
2019-02-08T18:52:03.735Z,96.90
2019-02-08T18:54:34.130Z,96.90
2019-02-08T18:57:04.528Z,96.70
2019-02-08T18:59:34.826Z,96.60
2019-02-08T19:02:05.100Z,96.60
2019-02-08T19:04:35.493Z,96.70
2019-02-08T19:07:06.116Z,96.60
2019-02-08T19:09:36.584Z,96.70
2019-02-08T19:12:07.042Z,96.60
2019-02-08T19:14:45.029Z,97.10
2019-02-08T19:17:15.601Z,96.90
2019-02-08T19:19:46.244Z,96.60
2019-02-08T19:22:16.676Z,96.60
2019-02-08T19:24:47.032Z,96.60
2019-02-08T19:27:18.908Z,96.70
2019-02-08T19:29:49.380Z,96.70
2019-02-08T19:32:19.813Z,97.00
2019-02-08T19:34:50.349Z,97.20
2019-02-08T19:37:23.741Z,97.30
2019-02-08T19:39:54.367Z,97.50
2019-02-08T19:42:24.755Z,97.50
2019-02-08T19:44:55.445Z,97.30
2019-02-08T19:47:25.954Z,97.10
2019-02-08T19:49:56.547Z,96.90
2019-02-08T19:52:26.972Z,96.80
2019-02-08T19:54:57.314Z,97.00
2019-02-08T19:57:28.107Z,97.00
2019-02-08T20:00:00.662Z,97.10
2019-02-08T20:02:31.128Z,97.50
2019-02-08T20:05:01.439Z,97.20
2019-02-08T20:07:32.117Z,96.90
2019-02-08T20:10:02.773Z,96.80
2019-02-08T20:12:33.443Z,96.90
2019-02-08T20:15:03.882Z,96.80
2019-02-08T20:17:34.372Z,96.70
2019-02-08T20:20:06.838Z,96.70
2019-02-08T20:22:37.248Z,96.80
2019-02-08T20:25:21.921Z,96.80
2019-02-08T20:27:52.402Z,96.50
2019-02-08T20:30:23.163Z,96.60
2019-02-08T20:32:54.301Z,96.50
2019-02-08T20:35:31.552Z,96.40
2019-02-08T20:41:04.780Z,95.90
2019-02-08T20:43:35.241Z,95.90
2019-02-08T20:46:05.674Z,96.10
2019-02-08T20:48:36.022Z,96.20
2019-02-08T20:51:06.517Z,96.30
2019-02-08T20:53:36.929Z,96.40
2019-02-08T20:56:07.383Z,96.40
2019-02-08T20:58:37.912Z,96.40
2019-02-08T21:01:08.361Z,96.40
2019-02-08T21:03:38.940Z,96.50
2019-02-08T21:06:09.433Z,96.60
2019-02-08T21:08:39.994Z,96.60
2019-02-08T21:11:10.647Z,96.70
2019-02-08T21:13:41.090Z,96.90
2019-02-08T21:16:11.695Z,97.00
2019-02-08T21:18:42.214Z,97.30
2019-02-08T21:21:12.593Z,97.40
2019-02-08T21:23:43.061Z,97.40
2019-02-08T21:26:13.457Z,97.30
2019-02-08T21:28:43.811Z,97.10
2019-02-08T21:31:14.319Z,96.90
2019-02-08T21:33:44.542Z,96.80
2019-02-08T21:36:14.871Z,96.80
2019-02-08T21:38:45.243Z,96.70
2019-02-08T21:41:15.562Z,96.70
2019-02-08T21:43:46.300Z,96.60
2019-02-08T21:46:16.840Z,96.70
2019-02-08T21:48:47.218Z,96.90
2019-02-08T21:51:17.598Z,97.00
2019-02-08T21:53:48.019Z,97.10
2019-02-08T21:56:18.329Z,97.30
2019-02-08T21:58:48.889Z,97.20
2019-02-08T22:01:19.360Z,97.20
2019-02-08T22:03:49.693Z,97.10
2019-02-08T22:06:20.958Z,97.20
2019-02-08T22:08:51.389Z,97.10
2019-02-08T22:11:21.720Z,96.90
2019-02-08T22:13:52.122Z,96.80
2019-02-08T22:16:22.840Z,96.80
2019-02-08T22:18:56.230Z,96.80
2019-02-08T22:21:26.559Z,96.80
2019-02-08T22:23:57.009Z,96.70
2019-02-08T22:26:27.453Z,96.70
2019-02-08T22:28:57.743Z,96.60
2019-02-08T22:31:28.135Z,96.70
2019-02-08T22:33:58.835Z,96.70
2019-02-08T22:36:29.199Z,96.80
2019-02-08T22:38:59.582Z,96.70
2019-02-08T22:41:30.035Z,96.80
2019-02-08T22:44:00.609Z,96.90
2019-02-08T22:46:31.169Z,96.90
2019-02-08T22:49:01.582Z,97.10
2019-02-08T22:51:31.912Z,97.00
2019-02-08T22:54:03.362Z,97.00
2019-02-08T22:56:33.740Z,97.10
2019-02-08T22:59:04.525Z,97.10
2019-02-08T23:01:37.799Z,97.00
2019-02-08T23:04:08.718Z,97.10
2019-02-08T23:06:44.639Z,97.20
2019-02-08T23:09:24.016Z,97.30
2019-02-08T23:11:54.331Z,97.50
2019-02-08T23:14:24.712Z,97.60
2019-02-08T23:16:55.090Z,97.60
2019-02-08T23:19:25.548Z,97.60
2019-02-08T23:21:56.499Z,97.70
2019-02-08T23:24:26.918Z,97.60
2019-02-08T23:26:58.263Z,98.00
2019-02-08T23:29:30.288Z,97.40
2019-02-08T23:32:00.786Z,97.40
2019-02-08T23:34:31.197Z,97.30
2019-02-08T23:37:01.599Z,97.30
2019-02-08T23:39:32.260Z,97.30
2019-02-08T23:42:02.574Z,97.40
2019-02-08T23:44:32.981Z,97.50
2019-02-08T23:47:03.262Z,97.50
2019-02-08T23:49:36.444Z,97.50
2019-02-08T23:52:06.731Z,97.70
2019-02-08T23:54:37.195Z,97.60
2019-02-08T23:57:07.436Z,97.70
2019-02-08T23:59:38.475Z,97.70
